Time;durP1;ratioP1;P1;durP2;ratioP2;P2;SDS_P1;SDS_P2;PMS_P1;PMS_P2;Temp;Humidity;BMP_temperature;BMP_pressure;BME280_temperature;BME280_humidity;BME280_pressure;Samples;Min_cycle;Max_cycle;Signal;HPM_P1;HPM_P2
2022/01/22 00:01:51;;;;;;;8.15;1.13;;;;;;;5.50;100.00;102984.78;5077372;28;20398;-78
2022/01/22 00:04:16;;;;;;;10.65;2.20;;;;;;;5.62;100.00;103007.00;5056993;28;20084;-78
2022/01/22 00:06:42;;;;;;;12.63;1.55;;;;;;;5.72;100.00;103010.06;5043920;28;20024;-78
2022/01/22 00:09:08;;;;;;;7.25;0.82;;;;;;;5.61;100.00;103002.66;5075787;28;20055;-78
2022/01/22 00:11:39;;;;;;;7.47;1.60;;;;;;;5.60;100.00;102998.34;5078269;28;20174;-78
2022/01/22 00:17:03;;;;;;;4.97;1.25;;;;;;;5.63;100.00;103000.81;5040033;28;20053;-77
2022/01/22 00:19:29;;;;;;;5.60;0.65;;;;;;;5.69;100.00;103011.06;5012811;28;20653;-77
2022/01/22 00:21:55;;;;;;;3.55;0.90;;;;;;;5.56;100.00;102994.16;5039398;28;20085;-77
2022/01/22 00:24:20;;;;;;;4.18;0.60;;;;;;;5.69;100.00;103016.28;5024367;28;20079;-77
2022/01/22 00:26:47;;;;;;;2.42;0.40;;;;;;;5.73;100.00;103010.00;5040105;28;20420;-77
2022/01/22 00:29:13;;;;;;;2.53;0.60;;;;;;;5.70;100.00;103015.34;5040381;28;20029;-77
2022/01/22 00:31:41;;;;;;;4.57;0.52;;;;;;;5.66;100.00;103008.56;5032568;28;20036;-78
2022/01/22 00:34:07;;;;;;;2.80;0.57;;;;;;;5.69;100.00;103007.59;5042085;28;20033;-78
2022/01/22 00:36:33;;;;;;;3.90;0.52;;;;;;;5.69;100.00;103008.44;5024472;28;20033;-78
2022/01/22 00:38:59;;;;;;;2.95;0.70;;;;;;;5.62;100.00;102990.41;5038935;28;20178;-78
2022/01/22 00:41:25;;;;;;;3.47;0.73;;;;;;;5.74;100.00;103011.69;5037282;28;20499;-77
2022/01/22 00:43:51;;;;;;;7.32;1.48;;;;;;;5.67;100.00;103001.56;5038877;28;20203;-77
2022/01/22 00:46:16;;;;;;;13.93;1.52;;;;;;;5.76;100.00;103015.09;5022899;28;20037;-77
2022/01/22 00:48:42;;;;;;;5.45;0.70;;;;;;;5.82;100.00;103021.03;5037289;28;20378;-77
2022/01/22 00:51:07;;;;;;;7.38;0.68;;;;;;;5.80;100.00;103009.75;5017255;28;20029;-77
2022/01/22 00:53:33;;;;;;;3.90;0.70;;;;;;;5.81;100.00;103016.69;5073321;28;20066;-77
2022/01/22 00:55:59;;;;;;;4.50;1.08;;;;;;;5.78;100.00;103007.19;5075483;28;20020;-77
2022/01/22 00:58:24;;;;;;;3.85;0.93;;;;;;;5.65;100.00;102991.13;5079636;28;20036;-77
2022/01/22 01:00:50;;;;;;;2.78;0.98;;;;;;;5.78;100.00;103010.66;5058296;28;20028;-77
2022/01/22 01:03:16;;;;;;;5.38;0.70;;;;;;;5.68;100.00;103001.50;5081284;28;20029;-77
2022/01/22 01:05:41;;;;;;;7.15;0.90;;;;;;;5.72;100.00;103002.19;5078986;28;20017;-77
2022/01/22 01:08:07;;;;;;;3.88;1.10;;;;;;;5.74;100.00;103016.94;5080048;28;20161;-77
2022/01/22 01:10:32;;;;;;;6.78;1.15;;;;;;;5.73;100.00;103020.47;5076485;28;20084;-77
2022/01/22 01:12:58;;;;;;;8.15;1.10;;;;;;;5.64;100.00;102992.06;5059148;28;20028;-77
2022/01/22 01:34:19;;;;;;;4.35;1.00;;;;;;;5.65;100.00;103033.06;5081558;28;20105;-77
2022/01/22 01:36:45;;;;;;;4.25;1.05;;;;;;;5.73;100.00;103046.69;5049494;28;20025;-77
2022/01/22 01:39:15;;;;;;;6.72;1.33;;;;;;;5.61;100.00;103023.63;5081616;28;20108;-78
2022/01/22 01:44:40;;;;;;;6.35;1.42;;;;;;;5.65;100.00;103038.28;5028853;28;20120;-78
2022/01/22 01:47:07;;;;;;;3.67;1.00;;;;;;;5.69;100.00;103044.25;5030408;28;20030;-78
2022/01/22 01:49:33;;;;;;;27.20;3.00;;;;;;;5.62;100.00;103025.34;5014095;28;20029;-78
2022/01/22 01:52:02;;;;;;;10.55;0.93;;;;;;;5.63;100.00;103032.25;4997145;28;21139;-78
2022/01/22 01:54:38;;;;;;;4.90;1.02;;;;;;;5.62;100.00;103022.72;5029840;28;20187;-78
2022/01/22 01:59:50;;;;;;;10.30;1.25;;;;;;;5.72;100.00;103054.59;5030516;28;20040;-77
2022/01/22 02:02:16;;;;;;;5.45;0.93;;;;;;;5.74;100.00;103060.63;5016357;28;20053;-78
2022/01/22 02:04:42;;;;;;;10.75;1.25;;;;;;;5.57;100.00;103028.16;5032922;28;20130;-78
2022/01/22 02:07:08;;;;;;;6.60;0.77;;;;;;;5.57;100.00;103024.66;5032923;28;20371;-79
2022/01/22 02:09:34;;;;;;;4.50;1.55;;;;;;;5.53;100.00;103023.94;5032466;28;20036;-79
2022/01/22 02:12:38;;;;;;;6.45;0.55;;;;;;;5.75;100.00;103055.34;5033753;28;20124;-79
2022/01/22 02:25:44;;;;;;;8.75;1.15;;;;;;;5.76;100.00;103059.66;5066902;28;20080;-78
2022/01/22 02:28:11;;;;;;;6.82;0.98;;;;;;;5.63;100.00;103049.75;5067469;28;20032;-78
2022/01/22 02:30:40;;;;;;;6.63;0.80;;;;;;;5.70;100.00;103059.91;5071737;28;20025;-78
2022/01/22 02:35:51;;;;;;;1.77;0.75;;;;;;;5.55;100.00;103021.25;5054869;28;20068;-78
2022/01/22 02:38:23;;;;;;;8.30;1.02;;;;;;;5.71;100.00;103051.13;5067961;28;20103;-78
2022/01/22 02:40:49;;;;;;;3.50;0.75;;;;;;;5.79;100.00;103063.91;5064551;28;20021;-79
2022/01/22 02:43:16;;;;;;;7.15;1.15;;;;;;;5.62;100.00;103048.91;5066043;28;20139;-79
2022/01/22 02:45:45;;;;;;;21.38;1.95;;;;;;;5.60;100.00;103048.13;5069616;28;20480;-79
2022/01/22 02:48:11;;;;;;;3.75;0.40;;;;;;;5.62;100.00;103056.75;5082933;28;20024;-79
2022/01/22 02:50:36;;;;;;;4.20;0.73;;;;;;;5.73;100.00;103067.66;5084996;28;20029;-79
2022/01/22 02:53:04;;;;;;;5.13;1.38;;;;;;;5.34;100.00;103012.53;5055505;28;20048;-79
2022/01/22 02:55:31;;;;;;;8.85;1.27;;;;;;;5.71;100.00;103079.97;5084242;28;20020;-79
2022/01/22 02:57:56;;;;;;;2.10;0.60;;;;;;;5.60;100.00;103053.34;5082718;28;20035;-78
2022/01/22 03:00:23;;;;;;;3.38;0.82;;;;;;;5.69;100.00;103068.69;5085915;28;20020;-79
2022/01/22 03:02:49;;;;;;;5.22;0.75;;;;;;;5.75;100.00;103078.91;5080803;28;20027;-79
2022/01/22 03:05:15;;;;;;;1.50;0.40;;;;;;;5.76;100.00;103083.22;5086050;28;20146;-79
2022/01/22 03:07:43;;;;;;;4.57;0.57;;;;;;;5.77;100.00;103086.72;5085648;28;20233;-79
2022/01/22 03:10:09;;;;;;;10.93;0.85;;;;;;;5.78;100.00;103091.88;5083824;28;20055;-79
2022/01/22 03:20:35;;;;;;;6.38;0.88;;;;;;;5.81;100.00;103090.06;5083225;28;20066;-79
2022/01/22 03:23:09;;;;;;;10.45;1.52;;;;;;;5.68;100.00;103064.38;5086524;28;20044;-79
2022/01/22 03:28:22;;;;;;;3.33;0.43;;;;;;;5.73;100.00;103079.91;5086350;28;20034;-78
2022/01/22 03:30:48;;;;;;;0.80;0.40;;;;;;;5.76;100.00;103088.47;5084467;28;20024;-79
2022/01/22 03:33:15;;;;;;;8.15;1.15;;;;;;;5.66;100.00;103066.22;5083686;28;20371;-79
2022/01/22 03:35:45;;;;;;;3.63;0.45;;;;;;;5.74;100.00;103076.34;5079775;28;20032;-79
2022/01/22 03:38:10;;;;;;;1.92;0.73;;;;;;;5.75;100.00;103071.06;5064698;28;20028;-78
2022/01/22 03:40:36;;;;;;;10.82;1.00;;;;;;;5.59;100.00;103062.13;5077796;28;20032;-79
2022/01/22 03:43:01;;;;;;;5.65;0.60;;;;;;;5.70;100.00;103080.84;5084071;28;20030;-78
2022/01/22 03:45:27;;;;;;;9.60;0.93;;;;;;;5.63;100.00;103074.19;5074321;28;20492;-78
2022/01/22 03:47:52;;;;;;;4.13;0.52;;;;;;;5.69;100.00;103091.41;5073478;28;20453;-79
2022/01/22 03:50:19;;;;;;;5.28;0.60;;;;;;;5.63;100.00;103081.19;5084229;28;20043;-79
2022/01/22 03:52:45;;;;;;;4.43;0.75;;;;;;;5.69;100.00;103087.03;5077022;28;20029;-79
2022/01/22 03:55:21;;;;;;;12.88;0.98;;;;;;;5.58;100.00;103070.91;5100914;28;20051;-79
2022/01/22 03:57:46;;;;;;;3.45;0.70;;;;;;;5.70;100.00;103087.88;5087801;28;20056;-78
2022/01/22 04:00:12;;;;;;;13.35;1.05;;;;;;;5.66;100.00;103076.69;5077175;28;20443;-79
2022/01/22 04:05:15;;;;;;;0.95;0.65;;;;;;;5.61;100.00;103065.53;5108163;28;20035;-79
2022/01/22 04:08:06;;;;;;;2.60;0.45;;;;;;;5.72;100.00;103076.41;5104059;28;20092;-79
2022/01/22 04:10:32;;;;;;;2.78;0.57;;;;;;;5.72;100.00;103078.19;5081106;28;20358;-78
2022/01/22 04:13:02;;;;;;;6.38;0.55;;;;;;;5.72;100.00;103091.28;5090635;28;20119;-79
2022/01/22 04:15:31;;;;;;;5.67;0.67;;;;;;;5.71;100.00;103095.69;5075713;28;20055;-79
2022/01/22 04:28:42;;;;;;;2.78;0.70;;;;;;;5.65;100.00;103085.44;5081463;28;20046;-78
2022/01/22 04:31:07;;;;;;;7.35;0.95;;;;;;;5.61;100.00;103085.63;5103446;28;20015;-78
2022/01/22 04:33:33;;;;;;;6.63;0.70;;;;;;;5.55;100.00;103071.88;5076776;28;20082;-78
2022/01/22 04:35:58;;;;;;;3.35;0.47;;;;;;;5.64;100.00;103088.13;5077085;28;20032;-79
2022/01/22 04:38:24;;;;;;;25.98;1.45;;;;;;;5.62;100.00;103090.81;5078175;28;20845;-79
2022/01/22 04:40:49;;;;;;;6.53;1.05;;;;;;;5.61;100.00;103089.09;5104256;28;20036;-79
2022/01/22 04:43:15;;;;;;;4.53;1.00;;;;;;;5.63;100.00;103092.50;5089758;28;20463;-79
2022/01/22 04:49:08;;;;;;;5.20;1.10;;;;;;;5.38;100.00;103056.00;5091998;28;20031;-79
2022/01/22 04:57:02;;;;;;;4.15;0.75;;;;;;;5.59;100.00;103096.16;5103529;28;20485;-79
2022/01/22 04:59:28;;;;;;;3.88;0.90;;;;;;;5.49;100.00;103074.75;5088336;28;20020;-78
2022/01/22 05:01:53;;;;;;;3.53;0.65;;;;;;;5.64;100.00;103099.47;5076807;28;20030;-78
2022/01/22 05:04:18;;;;;;;1.38;0.40;;;;;;;5.56;100.00;103080.59;5061746;28;20116;-79
2022/01/22 05:06:44;;;;;;;3.60;0.50;;;;;;;5.65;100.00;103098.53;5059993;28;20035;-79
2022/01/22 05:09:09;;;;;;;4.50;0.60;;;;;;;5.46;100.00;103061.75;5107401;28;20016;-79
2022/01/22 05:11:35;;;;;;;5.22;0.88;;;;;;;5.42;100.00;103061.94;5074410;28;20036;-79
2022/01/22 05:14:01;;;;;;;4.82;0.85;;;;;;;5.59;100.00;103096.16;5087818;28;20123;-79
2022/01/22 05:16:26;;;;;;;22.70;2.58;;;;;;;5.48;100.00;103075.66;5082026;28;20027;-79
2022/01/22 05:19:03;;;;;;;4.03;1.33;;;;;;;5.61;100.00;103093.50;5109958;28;20114;-79
2022/01/22 05:21:31;;;;;;;1.83;0.68;;;;;;;5.55;100.00;103094.59;5106134;28;20066;-79
2022/01/22 05:23:59;;;;;;;4.82;1.15;;;;;;;5.57;100.00;103096.25;5047990;28;20020;-79
2022/01/22 05:37:04;;;;;;;8.70;1.05;;;;;;;5.52;100.00;103094.72;5087572;28;20040;-79
2022/01/22 05:39:32;;;;;;;3.92;0.60;;;;;;;5.58;100.00;103099.72;5101096;28;20032;-79
2022/01/22 05:41:59;;;;;;;4.43;0.85;;;;;;;5.60;100.00;103102.28;5101454;28;20079;-79
2022/01/22 05:44:25;;;;;;;1.95;1.00;;;;;;;5.60;100.00;103104.91;5109677;28;20042;-79
2022/01/22 05:46:52;;;;;;;13.10;0.90;;;;;;;5.63;100.00;103104.78;5091531;28;20028;-79
2022/01/22 05:49:21;;;;;;;5.10;0.95;;;;;;;5.64;100.00;103106.47;5069013;28;20028;-79
2022/01/22 05:51:48;;;;;;;2.72;0.70;;;;;;;5.66;100.00;103115.97;5064053;28;20054;-79
2022/01/22 05:59:36;;;;;;;6.10;0.82;;;;;;;5.69;100.00;103122.88;5097038;28;20188;-79
2022/01/22 06:02:06;;;;;;;6.85;1.75;;;;;;;5.53;100.00;103096.41;5110491;28;20118;-78
2022/01/22 06:04:32;;;;;;;10.88;0.52;;;;;;;5.58;100.00;103102.34;5107356;28;20036;-79
2022/01/22 06:06:59;;;;;;;8.02;0.60;;;;;;;5.67;100.00;103120.28;5108230;28;20034;-79
2022/01/22 06:09:25;;;;;;;4.57;1.30;;;;;;;5.58;100.00;103110.19;5074577;28;20074;-78
2022/01/22 06:12:44;;;;;;;12.20;0.80;;;;;;;5.62;100.00;103124.88;5057243;28;20048;-78
2022/01/22 06:14:36;;;;;;;2.83;0.60;;;;;;;5.46;100.00;103108.91;5091701;28;20177;-78
2022/01/22 06:17:02;;;;;;;3.45;0.63;;;;;;;5.43;100.00;103100.34;5082556;28;20110;-78
2022/01/22 06:19:28;;;;;;;4.90;0.73;;;;;;;5.59;100.00;103132.00;5099528;28;20508;-78
2022/01/22 06:21:54;;;;;;;4.13;0.73;;;;;;;5.57;100.00;103143.41;5079271;28;20089;-78
2022/01/22 06:24:20;;;;;;;9.95;0.70;;;;;;;5.23;100.00;103078.41;5102916;28;20088;-78
2022/01/22 06:26:46;;;;;;;1.85;0.65;;;;;;;5.48;100.00;103116.72;5086191;28;20039;-78
2022/01/22 06:29:11;;;;;;;7.82;0.60;;;;;;;5.49;100.00;103127.13;5089515;28;20031;-78
2022/01/22 06:31:37;;;;;;;8.07;1.05;;;;;;;5.44;100.00;103136.06;5081545;28;20115;-78
2022/01/22 06:34:03;;;;;;;1.88;0.40;;;;;;;5.57;100.00;103158.25;5067924;28;20085;-78
2022/01/22 06:36:28;;;;;;;2.78;0.65;;;;;;;5.58;100.00;103162.59;5101735;28;20093;-79
2022/01/22 06:39:10;;;;;;;4.20;0.73;;;;;;;5.49;100.00;103155.94;5101704;28;20036;-79
2022/01/22 06:41:44;;;;;;;2.13;0.55;;;;;;;5.59;100.00;103166.06;5076025;28;20043;-78
2022/01/22 06:44:21;;;;;;;4.85;0.98;;;;;;;5.55;100.00;103173.16;5100136;28;20024;-79
2022/01/22 06:46:49;;;;;;;10.02;1.30;;;;;;;5.53;100.00;103170.63;5091959;28;20023;-78
2022/01/22 06:49:15;;;;;;;3.40;0.40;;;;;;;5.52;100.00;103168.06;5081107;28;20568;-79
2022/01/22 06:51:40;;;;;;;9.13;0.80;;;;;;;5.34;100.00;103146.06;5092045;28;20034;-79
2022/01/22 06:54:07;;;;;;;3.67;0.65;;;;;;;5.53;100.00;103169.75;5102854;28;20126;-79
2022/01/22 06:56:33;;;;;;;5.80;0.70;;;;;;;5.48;100.00;103166.47;5106177;28;20537;-78
2022/01/22 06:58:59;;;;;;;0.93;0.35;;;;;;;5.39;100.00;103161.59;5084914;28;20050;-78
2022/01/22 07:01:26;;;;;;;1.55;0.60;;;;;;;5.36;100.00;103147.72;5073591;28;20027;-79
2022/01/22 07:03:53;;;;;;;0.70;0.45;;;;;;;5.39;100.00;103166.84;5065785;28;20055;-78
2022/01/22 07:06:19;;;;;;;5.82;0.52;;;;;;;5.18;100.00;103130.06;5063257;28;20084;-78
2022/01/22 07:08:44;;;;;;;0.43;0.25;;;;;;;5.20;100.00;103136.09;5101312;28;20090;-80
2022/01/22 07:11:10;;;;;;;12.88;0.98;;;;;;;5.32;100.00;103161.84;5103002;27;20031;-78
2022/01/22 07:13:35;;;;;;;0.57;0.38;;;;;;;5.31;100.00;103160.13;5084995;28;20027;-79
2022/01/22 07:16:01;;;;;;;1.58;1.48;;;;;;;5.28;100.00;103160.25;5078754;28;20016;-78
2022/01/22 07:18:28;;;;;;;1.13;0.20;;;;;;;5.38;100.00;103176.47;5079510;28;20024;-78
2022/01/22 07:20:54;;;;;;;2.33;0.40;;;;;;;5.43;100.00;103171.03;5081675;28;20596;-77
2022/01/22 07:23:43;;;;;;;3.00;0.60;;;;;;;5.45;100.00;103182.31;5096789;28;20107;-78
2022/01/22 07:26:06;;;;;;;2.17;0.30;;;;;;;5.26;100.00;103135.03;5096481;28;20043;-77
2022/01/22 07:28:32;;;;;;;2.05;0.60;;;;;;;5.26;100.00;103146.34;5082325;28;20044;-78
2022/01/22 07:31:00;;;;;;;3.65;0.65;;;;;;;5.32;100.00;103163.59;5076191;28;20111;-78
2022/01/22 07:36:12;;;;;;;6.43;0.75;;;;;;;5.38;100.00;103175.59;5108051;28;20087;-79
2022/01/22 07:38:39;;;;;;;4.53;0.98;;;;;;;5.29;100.00;103174.19;5092921;28;20099;-79
2022/01/22 07:41:07;;;;;;;4.20;0.70;;;;;;;5.41;100.00;103191.19;5076792;28;20483;-80
2022/01/22 07:43:34;;;;;;;3.63;1.02;;;;;;;5.39;100.00;103185.16;5086825;28;20028;-79
2022/01/22 07:45:59;;;;;;;3.10;0.47;;;;;;;5.32;100.00;103174.06;5098386;28;20026;-77
2022/01/22 07:48:25;;;;;;;2.60;0.50;;;;;;;5.43;100.00;103189.38;5056576;28;20035;-77
2022/01/22 07:50:50;;;;;;;5.13;0.90;;;;;;;5.45;100.00;103183.16;5093380;28;20032;-77
2022/01/22 07:53:16;;;;;;;8.05;0.73;;;;;;;5.29;100.00;103161.97;5080574;28;20051;-78
2022/01/22 07:55:41;;;;;;;2.33;0.50;;;;;;;5.43;100.00;103189.38;5081541;28;20046;-77
2022/01/22 07:58:06;;;;;;;4.47;0.95;;;;;;;5.31;100.00;103173.22;5100309;28;20051;-77
2022/01/22 08:00:32;;;;;;;2.67;0.57;;;;;;;5.38;100.00;103186.94;5065420;28;20164;-79
2022/01/22 08:02:57;;;;;;;5.65;1.15;;;;;;;5.36;100.00;103173.91;5079437;28;20032;-77
2022/01/22 08:05:23;;;;;;;5.40;1.00;;;;;;;5.43;100.00;103189.38;5082311;28;20702;-77
2022/01/22 08:07:49;;;;;;;5.15;0.85;;;;;;;5.36;100.00;103178.28;5082148;28;20028;-77
2022/01/22 08:10:16;;;;;;;7.07;0.68;;;;;;;5.49;100.00;103189.16;5075505;28;20040;-77
2022/01/22 08:12:42;;;;;;;3.13;0.88;;;;;;;5.35;100.00;103169.56;5094147;27;20546;-77
2022/01/22 08:15:10;;;;;;;11.55;0.95;;;;;;;5.49;100.00;103186.53;5067756;28;20036;-77
2022/01/22 08:17:35;;;;;;;4.47;0.80;;;;;;;5.52;100.00;103194.25;5096330;28;20076;-77
2022/01/22 08:20:02;;;;;;;5.97;0.77;;;;;;;5.41;100.00;103175.50;5073572;28;20443;-77
2022/01/22 08:22:27;;;;;;;4.70;0.90;;;;;;;5.51;100.00;103203.88;5076759;28;20232;-77
2022/01/22 08:24:55;;;;;;;1.90;0.40;;;;;;;5.41;100.00;103173.72;5076509;28;20039;-77
2022/01/22 08:27:34;;;;;;;6.90;0.43;;;;;;;5.49;100.00;103183.91;5094312;28;20044;-77
2022/01/22 08:30:00;;;;;;;8.82;0.65;;;;;;;5.48;100.00;103187.44;5095342;28;20024;-76
2022/01/22 08:37:51;;;;;;;4.30;0.50;;;;;;;5.66;100.00;103206.81;5096684;28;20318;-76
2022/01/22 08:40:17;;;;;;;1.85;0.38;;;;;;;5.55;100.00;103186.25;5063002;28;20024;-77
2022/01/22 08:42:45;;;;;;;4.82;1.33;;;;;;;5.70;100.00;103205.78;5087646;28;20034;-76
2022/01/22 08:45:10;;;;;;;3.05;0.30;;;;;;;5.74;100.00;103216.06;5073150;28;20031;-76
2022/01/22 08:47:36;;;;;;;2.38;0.60;;;;;;;5.66;100.00;103194.59;5074560;28;20560;-76
2022/01/22 08:50:03;;;;;;;4.00;0.73;;;;;;;5.74;100.00;103216.06;5071320;28;20035;-76
2022/01/22 08:52:32;;;;;;;2.92;0.40;;;;;;;5.59;100.00;103190.47;5089548;28;20478;-76
2022/01/22 08:54:57;;;;;;;1.50;0.15;;;;;;;5.80;100.00;103219.38;5092530;28;20495;-77
2022/01/22 08:57:25;;;;;;;0.30;0.15;;;;;;;5.82;100.00;103217.56;5056571;28;20090;-77
2022/01/22 08:59:50;;;;;;;0.90;0.20;;;;;;;5.86;100.00;103224.38;5089623;28;20032;-76
2022/01/22 09:02:16;;;;;;;3.47;0.40;;;;;;;5.92;100.00;103219.75;5091928;28;20499;-77
2022/01/22 09:04:41;;;;;;;3.85;0.75;;;;;;;5.86;100.00;103206.03;5072599;28;20035;-76
2022/01/22 09:07:07;;;;;;;3.90;0.52;;;;;;;5.98;100.00;103229.16;5093152;28;20064;-76
2022/01/22 09:09:35;;;;;;;3.75;0.70;;;;;;;5.92;100.00;103208.41;5091549;28;20124;-76
2022/01/22 09:12:01;;;;;;;5.50;0.43;;;;;;;6.00;100.00;103231.72;5066977;28;20036;-76
2022/01/22 09:14:26;;;;;;;1.58;0.35;;;;;;;5.93;100.00;103221.44;5078303;28;20399;-76
2022/01/22 09:16:52;;;;;;;2.38;0.30;;;;;;;6.08;100.00;103222.63;5045989;28;20020;-76
2022/01/22 09:19:18;;;;;;;0.32;0.20;;;;;;;6.21;100.00;103224.75;5076661;28;20475;-76
2022/01/22 09:21:46;;;;;;;5.25;0.85;;;;;;;6.51;100.00;103226.09;5074368;28;20130;-77
2022/01/22 09:24:17;;;;;;;4.22;0.70;;;;;;;6.81;100.00;103209.94;5095765;28;20042;-77
2022/01/22 09:26:43;;;;;;;;;;;;;;;7.12;100.00;103224.31;5092858;28;20019;-77
2022/01/22 09:29:09;;;;;;;0.28;0.10;;;;;;;6.94;100.00;103200.59;5090648;28;21480;-77
2022/01/22 09:31:34;;;;;;;1.52;0.50;;;;;;;7.10;100.00;103231.41;5075911;28;20077;-77
2022/01/22 09:34:01;;;;;;;1.83;0.93;;;;;;;7.10;100.00;103236.66;5093286;28;20028;-77
2022/01/22 09:36:29;;;;;;;3.80;0.55;;;;;;;7.21;100.00;103239.69;5075654;28;20036;-77
2022/01/22 09:38:55;;;;;;;2.45;0.45;;;;;;;7.16;100.00;103236.38;5075580;28;20093;-77
2022/01/22 09:41:24;;;;;;;1.63;0.32;;;;;;;7.09;100.00;103234.97;5055566;28;20020;-76
2022/01/22 09:43:50;;;;;;;1.58;0.40;;;;;;;7.12;100.00;103245.31;5088134;28;20024;-78
2022/01/22 09:46:16;;;;;;;3.80;0.60;;;;;;;7.01;100.00;103227.41;5078823;28;20038;-77
2022/01/22 09:48:46;;;;;;;1.48;0.20;;;;;;;7.03;100.00;103241.34;5076296;28;20475;-77
2022/01/22 09:53:56;;;;;;;3.05;0.40;;;;;;;7.02;100.00;103234.38;5094818;28;20074;-77
2022/01/22 09:56:24;;;;;;;4.80;0.30;;;;;;;7.28;100.00;103256.00;5057255;28;20035;-76
2022/01/22 09:58:50;;;;;;;3.50;0.43;;;;;;;7.57;100.00;103257.28;5072483;28;20625;-76
2022/01/22 10:01:19;;;;;;;1.40;0.57;;;;;;;7.73;100.00;103250.41;5074701;28;20392;-76
2022/01/22 10:03:46;;;;;;;4.07;0.50;;;;;;;7.82;100.00;103247.34;5095797;28;20491;-80
2022/01/22 10:06:16;;;;;;;3.10;0.60;;;;;;;7.89;100.00;103250.53;5096906;28;20042;-77
2022/01/22 10:08:41;;;;;;;6.43;0.63;;;;;;;7.90;100.00;103241.69;5076134;28;20028;-77
2022/01/22 10:11:16;;;;;;;2.17;0.40;;;;;;;7.95;100.00;103241.50;5058186;27;20024;-77
2022/01/22 10:13:50;;;;;;;1.88;0.50;;;;;;;7.93;100.00;103259.13;5095853;28;20398;-78
2022/01/22 10:16:26;;;;;;;5.60;0.70;;;;;;;7.88;99.51;103251.44;5095507;28;20035;-77
2022/01/22 10:19:18;;;;;;;11.95;0.85;;;;;;;7.76;100.00;103246.78;5076480;28;20027;-77
2022/01/22 10:21:54;;;;;;;1.95;1.15;;;;;;;7.78;100.00;103263.34;5081060;28;20028;-78
2022/01/22 10:24:44;;;;;;;9.30;1.15;;;;;;;7.81;100.00;103260.53;5082485;28;20016;-77
2022/01/22 10:27:22;;;;;;;5.55;0.85;;;;;;;7.87;100.00;103264.69;5097457;28;20038;-77
2022/01/22 10:29:53;;;;;;;2.58;0.57;;;;;;;7.89;100.00;103270.72;5098043;28;20020;-77
2022/01/22 10:32:24;;;;;;;0.70;0.38;;;;;;;7.84;100.00;103263.06;5079451;28;20033;-77
2022/01/22 10:35:03;;;;;;;5.85;0.88;;;;;;;7.65;100.00;103270.94;5077754;28;20028;-77
2022/01/22 10:37:29;;;;;;;7.13;1.48;;;;;;;7.59;100.00;103268.59;5095121;28;20301;-77
2022/01/22 10:40:16;;;;;;;2.22;0.52;;;;;;;7.50;100.00;103274.28;5097269;28;20417;-78
2022/01/22 10:42:42;;;;;;;1.25;0.55;;;;;;;7.49;100.00;103262.91;5096623;27;20106;-78
2022/01/22 10:45:11;;;;;;;3.90;0.93;;;;;;;7.44;100.00;103261.41;5078442;28;20571;-78
2022/01/22 10:47:36;;;;;;;1.55;0.40;;;;;;;7.45;100.00;103263.97;5064264;28;20502;-78
2022/01/22 10:50:23;;;;;;;4.53;0.95;;;;;;;7.37;100.00;103258.22;5081571;28;20042;-78
2022/01/22 10:52:53;;;;;;;4.72;0.63;;;;;;;7.35;100.00;103253.03;5081463;28;20035;-78
2022/01/22 10:55:20;;;;;;;7.72;0.52;;;;;;;7.32;100.00;103242.66;5079264;28;20035;-78
2022/01/22 10:58:07;;;;;;;3.20;1.15;;;;;;;7.44;100.00;103267.50;5075570;28;20036;-78
2022/01/22 11:00:32;;;;;;;2.78;0.70;;;;;;;7.30;100.00;103249.75;5087589;28;20100;-78
2022/01/22 11:02:58;;;;;;;4.90;0.65;;;;;;;7.36;100.00;103264.38;5082274;28;20040;-78
2022/01/22 11:05:38;;;;;;;1.48;0.22;;;;;;;7.38;100.00;103270.41;5076297;28;20516;-78
2022/01/22 11:08:12;;;;;;;4.47;0.50;;;;;;;7.38;100.00;103262.53;5096396;28;20038;-78
2022/01/22 11:10:40;;;;;;;4.95;0.80;;;;;;;7.39;100.00;103267.72;5079076;28;20566;-79
2022/01/22 11:13:05;;;;;;;2.05;0.30;;;;;;;7.39;100.00;103261.63;5096174;27;20060;-78
2022/01/22 11:15:31;;;;;;;1.38;0.45;;;;;;;7.24;100.00;103244.78;5096354;28;20039;-78
2022/01/22 11:17:59;;;;;;;1.20;0.35;;;;;;;7.30;100.00;103260.28;5097567;28;20089;-78
2022/01/22 11:20:25;;;;;;;2.95;0.52;;;;;;;7.14;100.00;103232.97;5098886;28;20067;-78
2022/01/22 11:22:52;;;;;;;1.52;0.50;;;;;;;7.27;100.00;103254.28;5076057;28;20035;-78
2022/01/22 11:25:19;;;;;;;2.47;0.65;;;;;;;7.35;100.00;103273.19;5076433;28;20111;-78
2022/01/22 11:27:46;;;;;;;1.88;0.52;;;;;;;7.29;100.00;103274.31;5097913;28;20043;-78
2022/01/22 11:30:16;;;;;;;2.47;0.65;;;;;;;7.27;100.00;103275.31;5077186;28;20024;-78
2022/01/22 11:32:50;;;;;;;5.97;0.77;;;;;;;7.10;100.00;103258.53;5083021;28;20020;-78
2022/01/22 11:35:46;;;;;;;2.40;0.60;;;;;;;7.20;100.00;103278.19;5085454;28;20028;-78
2022/01/22 11:38:37;;;;;;;2.75;0.60;;;;;;;7.20;100.00;103285.25;5068802;28;20057;-77
2022/01/22 11:41:16;;;;;;;4.32;0.63;;;;;;;7.19;100.00;103283.53;5082576;28;20083;-78
2022/01/22 11:44:17;;;;;;;6.88;0.75;;;;;;;7.22;100.00;103286.88;5085623;28;20494;-77
2022/01/22 11:46:58;;;;;;;;;;;;;;;7.23;100.00;103285.13;5097537;28;20035;-77
2022/01/22 11:49:27;;;;;;;7.70;1.17;;;;;;;7.15;100.00;103272.31;5076958;28;19919;-77
2022/01/22 11:52:12;;;;;;;0.38;0.28;;;;;;;7.17;100.00;103280.13;5058709;28;20394;-77
2022/01/22 11:54:56;;;;;;;2.35;0.93;;;;;;;7.16;100.00;103281.03;5093030;28;20055;-77
2022/01/22 11:57:26;;;;;;;2.45;1.13;;;;;;;7.09;100.00;103274.34;5085607;28;20081;-77
2022/01/22 12:00:24;;;;;;;3.30;0.47;;;;;;;7.05;100.00;103265.75;5078068;28;20042;-77
2022/01/22 12:03:08;;;;;;;2.78;0.95;;;;;;;7.14;100.00;103272.38;5075883;28;20039;-77
2022/01/22 12:06:04;;;;;;;5.53;1.10;;;;;;;7.21;100.00;103269.41;5094640;28;20084;-77
2022/01/22 12:09:15;;;;;;;4.38;1.05;;;;;;;7.17;100.00;103264.38;5096009;28;20036;-78
2022/01/22 12:14:48;;;;;;;5.05;1.05;;;;;;;7.21;100.00;103282.56;5095094;28;20062;-78
2022/01/22 12:17:20;;;;;;;2.13;0.75;;;;;;;7.05;100.00;103271.00;5086030;28;20028;-78
2022/01/22 12:22:31;;;;;;;8.25;1.10;;;;;;;7.16;100.00;103286.28;5089310;28;20036;-77
2022/01/22 12:24:59;;;;;;;4.05;1.42;;;;;;;7.20;100.00;103290.50;5092787;28;20495;-77
2022/01/22 12:27:50;;;;;;;2.38;0.70;;;;;;;7.21;100.00;103286.97;5071803;28;20766;-77
2022/01/22 12:30:31;;;;;;;2.47;0.85;;;;;;;7.24;100.00;103281.56;5077122;28;20028;-77
2022/01/22 12:32:59;;;;;;;1.83;0.98;;;;;;;7.23;100.00;103269.34;5096702;28;20543;-77
2022/01/22 12:35:38;;;;;;;9.02;1.30;;;;;;;7.04;100.00;103250.94;5068378;28;20495;-78
2022/01/22 12:38:27;;;;;;;4.90;0.98;;;;;;;7.15;100.00;103274.94;5093131;28;20031;-78
2022/01/22 12:41:01;;;;;;;4.07;1.42;;;;;;;7.20;100.00;103270.31;5094723;27;20027;-78
2022/01/22 12:43:32;;;;;;;3.15;1.00;;;;;;;7.22;100.00;103272.88;5074171;28;20027;-77
2022/01/22 12:46:00;;;;;;;4.70;1.63;;;;;;;7.22;100.00;103273.72;5092976;28;20039;-78
2022/01/22 12:48:32;;;;;;;3.33;1.42;;;;;;;7.14;100.00;103264.50;5092600;28;20425;-77
2022/01/22 12:51:05;;;;;;;5.45;1.63;;;;;;;6.98;100.00;103246.78;5091798;28;20047;-77
2022/01/22 12:53:33;;;;;;;2.60;1.40;;;;;;;7.12;100.00;103272.47;5069860;28;20086;-77
2022/01/22 12:58:30;;;;;;;6.63;1.50;;;;;;;7.06;100.00;103283.22;5077477;28;20122;-77
2022/01/22 13:01:13;;;;;;;8.73;1.42;;;;;;;6.93;100.00;103264.53;5094526;28;20486;-77
2022/01/22 13:03:42;;;;;;;3.08;1.60;;;;;;;7.05;100.00;103281.50;5096343;28;20027;-77
2022/01/22 13:06:08;;;;;;;4.90;1.33;;;;;;;6.76;100.00;103227.66;5092030;28;20137;-77
2022/01/22 13:08:34;;;;;;;7.30;1.63;;;;;;;6.90;100.00;103251.56;5090637;28;20468;-77
2022/01/22 13:11:06;;;;;;;4.65;1.60;;;;;;;6.93;100.00;103272.41;5053498;28;20515;-77
2022/01/22 13:13:32;;;;;;;6.72;1.63;;;;;;;6.90;100.00;103272.56;5087602;28;20422;-77
2022/01/22 13:16:02;;;;;;;2.38;2.08;;;;;;;6.75;100.00;103246.94;5071926;28;20039;-77
2022/01/22 13:18:58;;;;;;;9.85;1.90;;;;;;;6.85;100.00;103271.88;5091507;28;20078;-77
2022/01/22 13:21:33;;;;;;;3.92;1.65;;;;;;;6.75;100.00;103262.69;5059002;28;20599;-78
2022/01/22 13:23:59;;;;;;;3.75;1.70;;;;;;;6.75;100.00;103267.94;5063188;28;20493;-77